sensor_id;sensor_type;location;lat;lon;timestamp;P1;durP1;ratioP1;P2;durP2;ratioP2
15764;SDS011;7983;50.744;7.086;2023-02-01T00:00:22;8.53;;;5.00;;
15764;SDS011;7983;50.744;7.086;2023-02-01T00:02:47;8.77;;;4.43;;
15764;SDS011;7983;50.744;7.086;2023-02-01T00:05:13;9.87;;;4.70;;
15764;SDS011;7983;50.744;7.086;2023-02-01T00:07:39;8.60;;;4.40;;
15764;SDS011;7983;50.744;7.086;2023-02-01T00:10:07;7.57;;;4.77;;
15764;SDS011;7983;50.744;7.086;2023-02-01T00:12:35;8.50;;;4.57;;
15764;SDS011;7983;50.744;7.086;2023-02-01T00:15:03;8.90;;;4.37;;
15764;SDS011;7983;50.744;7.086;2023-02-01T00:17:29;8.87;;;4.17;;
15764;SDS011;7983;50.744;7.086;2023-02-01T00:19:57;7.40;;;4.53;;
15764;SDS011;7983;50.744;7.086;2023-02-01T00:22:25;8.93;;;4.13;;
15764;SDS011;7983;50.744;7.086;2023-02-01T00:24:53;6.43;;;3.87;;
15764;SDS011;7983;50.744;7.086;2023-02-01T00:27:21;8.43;;;4.70;;
15764;SDS011;7983;50.744;7.086;2023-02-01T00:29:49;8.60;;;4.43;;
15764;SDS011;7983;50.744;7.086;2023-02-01T00:32:14;6.57;;;4.13;;
15764;SDS011;7983;50.744;7.086;2023-02-01T00:34:43;6.97;;;4.60;;
15764;SDS011;7983;50.744;7.086;2023-02-01T00:37:08;6.23;;;3.87;;
15764;SDS011;7983;50.744;7.086;2023-02-01T00:39:34;9.50;;;4.80;;
15764;SDS011;7983;50.744;7.086;2023-02-01T00:42:00;10.27;;;4.30;;
15764;SDS011;7983;50.744;7.086;2023-02-01T00:44:27;9.13;;;4.60;;
15764;SDS011;7983;50.744;7.086;2023-02-01T00:46:58;7.20;;;3.67;;
15764;SDS011;7983;50.744;7.086;2023-02-01T00:49:24;9.67;;;4.57;;
15764;SDS011;7983;50.744;7.086;2023-02-01T00:51:49;9.53;;;4.00;;
15764;SDS011;7983;50.744;7.086;2023-02-01T00:54:15;6.90;;;3.63;;
15764;SDS011;7983;50.744;7.086;2023-02-01T00:56:41;8.63;;;3.60;;
15764;SDS011;7983;50.744;7.086;2023-02-01T00:59:12;7.20;;;3.27;;
15764;SDS011;7983;50.744;7.086;2023-02-01T01:01:38;6.20;;;3.10;;
15764;SDS011;7983;50.744;7.086;2023-02-01T01:04:06;7.97;;;3.23;;
15764;SDS011;7983;50.744;7.086;2023-02-01T01:06:32;8.43;;;3.30;;
15764;SDS011;7983;50.744;7.086;2023-02-01T01:09:02;6.27;;;2.57;;
15764;SDS011;7983;50.744;7.086;2023-02-01T01:11:33;6.30;;;2.50;;
15764;SDS011;7983;50.744;7.086;2023-02-01T01:14:02;6.83;;;2.43;;
15764;SDS011;7983;50.744;7.086;2023-02-01T01:16:30;7.60;;;3.17;;
15764;SDS011;7983;50.744;7.086;2023-02-01T01:18:56;5.87;;;2.57;;
15764;SDS011;7983;50.744;7.086;2023-02-01T01:21:23;8.63;;;3.00;;
15764;SDS011;7983;50.744;7.086;2023-02-01T01:23:51;6.00;;;2.30;;
15764;SDS011;7983;50.744;7.086;2023-02-01T01:26:19;4.83;;;2.20;;
15764;SDS011;7983;50.744;7.086;2023-02-01T01:28:47;8.57;;;2.57;;
15764;SDS011;7983;50.744;7.086;2023-02-01T01:31:14;8.07;;;2.80;;
15764;SDS011;7983;50.744;7.086;2023-02-01T01:33:41;7.70;;;2.90;;
15764;SDS011;7983;50.744;7.086;2023-02-01T01:36:08;7.30;;;2.80;;
15764;SDS011;7983;50.744;7.086;2023-02-01T01:38:40;7.53;;;2.73;;
15764;SDS011;7983;50.744;7.086;2023-02-01T01:41:06;7.30;;;2.90;;
15764;SDS011;7983;50.744;7.086;2023-02-01T01:46:51;7.87;;;2.93;;
15764;SDS011;7983;50.744;7.086;2023-02-01T01:49:17;4.57;;;2.50;;
15764;SDS011;7983;50.744;7.086;2023-02-01T01:54:17;5.67;;;2.27;;
15764;SDS011;7983;50.744;7.086;2023-02-01T01:56:52;7.00;;;2.53;;
15764;SDS011;7983;50.744;7.086;2023-02-01T01:59:22;5.30;;;2.27;;
15764;SDS011;7983;50.744;7.086;2023-02-01T02:01:49;4.70;;;2.30;;
15764;SDS011;7983;50.744;7.086;2023-02-01T02:04:18;4.63;;;2.20;;
15764;SDS011;7983;50.744;7.086;2023-02-01T02:06:51;5.77;;;2.43;;
15764;SDS011;7983;50.744;7.086;2023-02-01T02:09:24;7.40;;;2.60;;
15764;SDS011;7983;50.744;7.086;2023-02-01T02:11:52;4.67;;;2.30;;
15764;SDS011;7983;50.744;7.086;2023-02-01T02:14:18;7.63;;;2.60;;
15764;SDS011;7983;50.744;7.086;2023-02-01T02:20:35;5.40;;;2.50;;
15764;SDS011;7983;50.744;7.086;2023-02-01T02:28:13;5.77;;;2.67;;
15764;SDS011;7983;50.744;7.086;2023-02-01T02:42:08;8.30;;;2.97;;
15764;SDS011;7983;50.744;7.086;2023-02-01T02:45:07;6.87;;;2.90;;
15764;SDS011;7983;50.744;7.086;2023-02-01T02:47:57;7.37;;;3.43;;
15764;SDS011;7983;50.744;7.086;2023-02-01T02:50:34;8.80;;;3.10;;
15764;SDS011;7983;50.744;7.086;2023-02-01T02:53:35;8.30;;;3.00;;
15764;SDS011;7983;50.744;7.086;2023-02-01T02:56:22;11.57;;;3.60;;
15764;SDS011;7983;50.744;7.086;2023-02-01T02:59:08;6.47;;;2.97;;
15764;SDS011;7983;50.744;7.086;2023-02-01T03:01:54;10.37;;;3.60;;
15764;SDS011;7983;50.744;7.086;2023-02-01T03:04:41;8.40;;;3.13;;
15764;SDS011;7983;50.744;7.086;2023-02-01T03:07:15;5.10;;;2.70;;
15764;SDS011;7983;50.744;7.086;2023-02-01T03:09:59;8.20;;;3.20;;
15764;SDS011;7983;50.744;7.086;2023-02-01T03:12:33;6.40;;;2.57;;
15764;SDS011;7983;50.744;7.086;2023-02-01T03:15:26;10.07;;;3.10;;
15764;SDS011;7983;50.744;7.086;2023-02-01T03:18:07;9.47;;;2.73;;
15764;SDS011;7983;50.744;7.086;2023-02-01T03:20:48;7.50;;;3.00;;
15764;SDS011;7983;50.744;7.086;2023-02-01T03:23:17;6.00;;;2.50;;
15764;SDS011;7983;50.744;7.086;2023-02-01T03:25:47;8.90;;;3.20;;
15764;SDS011;7983;50.744;7.086;2023-02-01T03:28:15;5.87;;;2.23;;
15764;SDS011;7983;50.744;7.086;2023-02-01T03:30:46;7.47;;;2.87;;
15764;SDS011;7983;50.744;7.086;2023-02-01T03:33:17;6.90;;;2.80;;
15764;SDS011;7983;50.744;7.086;2023-02-01T03:36:00;6.67;;;2.70;;
15764;SDS011;7983;50.744;7.086;2023-02-01T03:41:35;6.67;;;2.70;;
15764;SDS011;7983;50.744;7.086;2023-02-01T03:44:41;6.13;;;2.93;;
15764;SDS011;7983;50.744;7.086;2023-02-01T03:47:03;10.07;;;3.00;;
15764;SDS011;7983;50.744;7.086;2023-02-01T03:49:44;7.43;;;2.70;;
15764;SDS011;7983;50.744;7.086;2023-02-01T03:52:37;11.10;;;3.20;;
15764;SDS011;7983;50.744;7.086;2023-02-01T03:55:18;9.50;;;3.60;;
15764;SDS011;7983;50.744;7.086;2023-02-01T03:57:55;9.20;;;3.17;;
15764;SDS011;7983;50.744;7.086;2023-02-01T04:00:28;5.43;;;2.80;;
15764;SDS011;7983;50.744;7.086;2023-02-01T04:02:54;6.20;;;2.57;;
15764;SDS011;7983;50.744;7.086;2023-02-01T04:05:23;8.57;;;3.33;;
15764;SDS011;7983;50.744;7.086;2023-02-01T04:07:51;7.43;;;3.03;;
15764;SDS011;7983;50.744;7.086;2023-02-01T04:10:16;10.27;;;2.97;;
15764;SDS011;7983;50.744;7.086;2023-02-01T04:12:42;8.53;;;3.10;;
15764;SDS011;7983;50.744;7.086;2023-02-01T04:15:10;8.20;;;3.20;;
15764;SDS011;7983;50.744;7.086;2023-02-01T04:17:38;8.83;;;3.07;;
15764;SDS011;7983;50.744;7.086;2023-02-01T04:20:03;6.63;;;3.10;;
15764;SDS011;7983;50.744;7.086;2023-02-01T04:22:30;8.47;;;3.43;;
15764;SDS011;7983;50.744;7.086;2023-02-01T04:24:58;11.23;;;3.70;;
15764;SDS011;7983;50.744;7.086;2023-02-01T04:27:23;8.97;;;3.77;;
15764;SDS011;7983;50.744;7.086;2023-02-01T04:29:51;10.50;;;3.90;;
15764;SDS011;7983;50.744;7.086;2023-02-01T04:32:20;7.67;;;3.57;;
15764;SDS011;7983;50.744;7.086;2023-02-01T04:34:46;10.37;;;3.37;;
15764;SDS011;7983;50.744;7.086;2023-02-01T04:37:16;9.23;;;3.37;;
15764;SDS011;7983;50.744;7.086;2023-02-01T04:39:42;11.23;;;3.50;;
15764;SDS011;7983;50.744;7.086;2023-02-01T04:42:07;7.23;;;3.20;;
15764;SDS011;7983;50.744;7.086;2023-02-01T04:44:33;9.83;;;3.30;;
15764;SDS011;7983;50.744;7.086;2023-02-01T04:47:04;7.67;;;3.13;;
15764;SDS011;7983;50.744;7.086;2023-02-01T04:49:32;7.33;;;2.90;;
15764;SDS011;7983;50.744;7.086;2023-02-01T04:52:02;9.97;;;3.20;;
15764;SDS011;7983;50.744;7.086;2023-02-01T04:54:30;10.33;;;3.53;;
15764;SDS011;7983;50.744;7.086;2023-02-01T04:56:56;10.90;;;3.47;;
15764;SDS011;7983;50.744;7.086;2023-02-01T04:59:22;8.60;;;3.20;;
15764;SDS011;7983;50.744;7.086;2023-02-01T05:01:47;8.67;;;2.90;;
15764;SDS011;7983;50.744;7.086;2023-02-01T05:04:15;7.03;;;3.00;;
15764;SDS011;7983;50.744;7.086;2023-02-01T05:06:43;9.97;;;3.17;;
15764;SDS011;7983;50.744;7.086;2023-02-01T05:09:11;10.00;;;3.30;;
15764;SDS011;7983;50.744;7.086;2023-02-01T05:11:37;10.97;;;3.13;;
15764;SDS011;7983;50.744;7.086;2023-02-01T05:14:21;13.27;;;3.30;;
15764;SDS011;7983;50.744;7.086;2023-02-01T05:16:47;13.80;;;3.50;;
15764;SDS011;7983;50.744;7.086;2023-02-01T05:19:15;9.53;;;3.40;;
15764;SDS011;7983;50.744;7.086;2023-02-01T05:21:43;11.83;;;3.77;;
15764;SDS011;7983;50.744;7.086;2023-02-01T05:24:09;9.03;;;3.20;;
15764;SDS011;7983;50.744;7.086;2023-02-01T05:26:35;12.03;;;3.23;;
15764;SDS011;7983;50.744;7.086;2023-02-01T05:29:08;11.40;;;2.93;;
15764;SDS011;7983;50.744;7.086;2023-02-01T05:31:36;10.60;;;3.07;;
15764;SDS011;7983;50.744;7.086;2023-02-01T05:34:03;8.23;;;2.90;;
15764;SDS011;7983;50.744;7.086;2023-02-01T05:36:29;9.53;;;3.00;;
15764;SDS011;7983;50.744;7.086;2023-02-01T05:38:55;9.57;;;2.90;;
15764;SDS011;7983;50.744;7.086;2023-02-01T05:41:21;7.40;;;2.90;;
15764;SDS011;7983;50.744;7.086;2023-02-01T05:43:46;8.27;;;2.67;;
15764;SDS011;7983;50.744;7.086;2023-02-01T05:46:12;6.20;;;2.20;;
15764;SDS011;7983;50.744;7.086;2023-02-01T05:48:41;9.87;;;3.33;;
15764;SDS011;7983;50.744;7.086;2023-02-01T05:51:07;7.70;;;2.53;;
15764;SDS011;7983;50.744;7.086;2023-02-01T05:53:34;8.07;;;2.70;;
15764;SDS011;7983;50.744;7.086;2023-02-01T05:56:02;8.00;;;2.70;;
15764;SDS011;7983;50.744;7.086;2023-02-01T05:58:28;8.73;;;2.83;;
15764;SDS011;7983;50.744;7.086;2023-02-01T06:00:54;8.97;;;2.43;;
15764;SDS011;7983;50.744;7.086;2023-02-01T06:03:20;8.33;;;2.47;;
15764;SDS011;7983;50.744;7.086;2023-02-01T06:05:48;8.70;;;2.50;;
15764;SDS011;7983;50.744;7.086;2023-02-01T06:08:16;10.27;;;2.50;;
15764;SDS011;7983;50.744;7.086;2023-02-01T06:10:42;8.00;;;2.30;;
15764;SDS011;7983;50.744;7.086;2023-02-01T06:13:08;8.80;;;2.27;;
15764;SDS011;7983;50.744;7.086;2023-02-01T06:15:38;7.40;;;2.17;;
15764;SDS011;7983;50.744;7.086;2023-02-01T06:18:06;8.10;;;2.27;;
15764;SDS011;7983;50.744;7.086;2023-02-01T06:20:36;7.30;;;2.00;;
15764;SDS011;7983;50.744;7.086;2023-02-01T06:23:04;9.90;;;2.07;;
15764;SDS011;7983;50.744;7.086;2023-02-01T06:25:30;7.73;;;2.20;;
15764;SDS011;7983;50.744;7.086;2023-02-01T06:28:01;6.40;;;2.30;;
15764;SDS011;7983;50.744;7.086;2023-02-01T06:30:30;9.43;;;2.67;;
15764;SDS011;7983;50.744;7.086;2023-02-01T06:32:56;6.70;;;1.77;;
15764;SDS011;7983;50.744;7.086;2023-02-01T06:35:22;6.90;;;2.03;;
15764;SDS011;7983;50.744;7.086;2023-02-01T06:37:47;10.57;;;2.17;;
15764;SDS011;7983;50.744;7.086;2023-02-01T06:40:15;12.17;;;3.13;;
15764;SDS011;7983;50.744;7.086;2023-02-01T06:42:41;8.97;;;2.37;;
15764;SDS011;7983;50.744;7.086;2023-02-01T06:45:09;7.23;;;1.90;;
15764;SDS011;7983;50.744;7.086;2023-02-01T06:47:37;8.00;;;2.57;;
15764;SDS011;7983;50.744;7.086;2023-02-01T06:50:05;5.00;;;1.67;;
15764;SDS011;7983;50.744;7.086;2023-02-01T06:52:31;6.87;;;2.27;;
15764;SDS011;7983;50.744;7.086;2023-02-01T06:54:56;8.97;;;2.00;;
15764;SDS011;7983;50.744;7.086;2023-02-01T06:57:22;7.50;;;1.97;;
15764;SDS011;7983;50.744;7.086;2023-02-01T06:59:49;5.23;;;2.00;;
15764;SDS011;7983;50.744;7.086;2023-02-01T07:02:17;4.60;;;1.73;;
15764;SDS011;7983;50.744;7.086;2023-02-01T07:04:42;8.60;;;2.00;;
15764;SDS011;7983;50.744;7.086;2023-02-01T07:07:11;6.70;;;2.97;;
15764;SDS011;7983;50.744;7.086;2023-02-01T07:09:37;6.20;;;2.03;;
15764;SDS011;7983;50.744;7.086;2023-02-01T07:12:03;7.87;;;2.57;;
15764;SDS011;7983;50.744;7.086;2023-02-01T07:14:29;4.57;;;1.90;;
15764;SDS011;7983;50.744;7.086;2023-02-01T07:16:54;8.23;;;2.33;;
15764;SDS011;7983;50.744;7.086;2023-02-01T07:19:22;8.93;;;2.20;;
15764;SDS011;7983;50.744;7.086;2023-02-01T07:21:48;6.93;;;2.23;;
15764;SDS011;7983;50.744;7.086;2023-02-01T07:24:14;4.37;;;2.10;;
15764;SDS011;7983;50.744;7.086;2023-02-01T07:26:40;8.33;;;2.27;;
15764;SDS011;7983;50.744;7.086;2023-02-01T07:29:06;7.07;;;2.23;;
15764;SDS011;7983;50.744;7.086;2023-02-01T07:31:31;11.43;;;2.60;;
15764;SDS011;7983;50.744;7.086;2023-02-01T07:33:59;11.30;;;2.90;;
15764;SDS011;7983;50.744;7.086;2023-02-01T07:36:25;7.23;;;2.50;;
15764;SDS011;7983;50.744;7.086;2023-02-01T07:38:51;11.47;;;2.23;;
15764;SDS011;7983;50.744;7.086;2023-02-01T07:41:17;9.33;;;3.07;;
15764;SDS011;7983;50.744;7.086;2023-02-01T07:43:43;7.00;;;2.30;;
15764;SDS011;7983;50.744;7.086;2023-02-01T07:46:11;9.93;;;2.33;;
15764;SDS011;7983;50.744;7.086;2023-02-01T07:48:37;4.77;;;1.77;;
15764;SDS011;7983;50.744;7.086;2023-02-01T07:51:13;8.57;;;2.27;;
15764;SDS011;7983;50.744;7.086;2023-02-01T07:53:40;9.07;;;2.13;;
15764;SDS011;7983;50.744;7.086;2023-02-01T07:56:11;9.60;;;2.60;;
15764;SDS011;7983;50.744;7.086;2023-02-01T07:58:40;9.63;;;2.70;;
15764;SDS011;7983;50.744;7.086;2023-02-01T08:01:11;9.90;;;2.63;;
15764;SDS011;7983;50.744;7.086;2023-02-01T08:03:49;8.77;;;2.47;;
15764;SDS011;7983;50.744;7.086;2023-02-01T08:06:19;11.97;;;2.83;;
15764;SDS011;7983;50.744;7.086;2023-02-01T08:08:48;11.13;;;2.60;;
15764;SDS011;7983;50.744;7.086;2023-02-01T08:11:15;10.93;;;2.90;;
15764;SDS011;7983;50.744;7.086;2023-02-01T08:13:42;10.37;;;3.07;;
15764;SDS011;7983;50.744;7.086;2023-02-01T08:16:10;11.57;;;2.87;;
15764;SDS011;7983;50.744;7.086;2023-02-01T08:18:38;9.63;;;2.53;;
15764;SDS011;7983;50.744;7.086;2023-02-01T08:23:31;10.13;;;3.07;;
15764;SDS011;7983;50.744;7.086;2023-02-01T08:26:08;9.10;;;2.73;;
15764;SDS011;7983;50.744;7.086;2023-02-01T08:28:43;8.70;;;2.63;;
15764;SDS011;7983;50.744;7.086;2023-02-01T08:31:13;8.13;;;2.70;;
15764;SDS011;7983;50.744;7.086;2023-02-01T08:33:41;10.63;;;2.73;;
15764;SDS011;7983;50.744;7.086;2023-02-01T08:36:12;8.47;;;2.80;;
15764;SDS011;7983;50.744;7.086;2023-02-01T08:38:40;6.67;;;2.30;;
15764;SDS011;7983;50.744;7.086;2023-02-01T08:41:10;9.07;;;2.70;;
15764;SDS011;7983;50.744;7.086;2023-02-01T08:43:38;7.70;;;2.40;;
15764;SDS011;7983;50.744;7.086;2023-02-01T08:46:06;9.27;;;2.90;;
15764;SDS011;7983;50.744;7.086;2023-02-01T08:48:33;7.73;;;2.50;;
15764;SDS011;7983;50.744;7.086;2023-02-01T08:51:05;9.00;;;2.60;;
15764;SDS011;7983;50.744;7.086;2023-02-01T08:53:37;11.70;;;2.63;;
15764;SDS011;7983;50.744;7.086;2023-02-01T08:56:06;8.63;;;2.67;;
15764;SDS011;7983;50.744;7.086;2023-02-01T08:58:33;6.40;;;2.10;;
15764;SDS011;7983;50.744;7.086;2023-02-01T09:01:08;7.73;;;2.60;;
15764;SDS011;7983;50.744;7.086;2023-02-01T09:03:37;10.40;;;3.00;;
15764;SDS011;7983;50.744;7.086;2023-02-01T09:06:04;8.57;;;2.97;;
15764;SDS011;7983;50.744;7.086;2023-02-01T09:08:34;7.57;;;2.20;;
15764;SDS011;7983;50.744;7.086;2023-02-01T09:11:01;11.37;;;2.80;;
15764;SDS011;7983;50.744;7.086;2023-02-01T09:13:33;9.33;;;2.47;;
15764;SDS011;7983;50.744;7.086;2023-02-01T09:16:00;6.10;;;1.90;;
15764;SDS011;7983;50.744;7.086;2023-02-01T09:18:26;8.87;;;2.50;;
15764;SDS011;7983;50.744;7.086;2023-02-01T09:20:51;8.63;;;2.30;;
15764;SDS011;7983;50.744;7.086;2023-02-01T09:23:19;12.53;;;3.03;;
15764;SDS011;7983;50.744;7.086;2023-02-01T09:25:47;9.13;;;2.60;;
15764;SDS011;7983;50.744;7.086;2023-02-01T09:28:16;10.63;;;2.80;;
15764;SDS011;7983;50.744;7.086;2023-02-01T09:30:42;12.40;;;3.03;;
15764;SDS011;7983;50.744;7.086;2023-02-01T09:33:08;9.37;;;2.37;;
15764;SDS011;7983;50.744;7.086;2023-02-01T09:35:36;7.03;;;2.30;;
15764;SDS011;7983;50.744;7.086;2023-02-01T09:38:03;10.67;;;2.53;;
15764;SDS011;7983;50.744;7.086;2023-02-01T09:40:28;7.57;;;2.77;;
15764;SDS011;7983;50.744;7.086;2023-02-01T09:43:15;8.17;;;2.30;;
15764;SDS011;7983;50.744;7.086;2023-02-01T09:48:54;9.23;;;2.20;;
15764;SDS011;7983;50.744;7.086;2023-02-01T09:51:25;11.17;;;2.60;;
15764;SDS011;7983;50.744;7.086;2023-02-01T09:57:02;10.77;;;2.40;;
15764;SDS011;7983;50.744;7.086;2023-02-01T09:59:49;9.43;;;2.33;;
15764;SDS011;7983;50.744;7.086;2023-02-01T10:02:24;9.03;;;2.50;;
15764;SDS011;7983;50.744;7.086;2023-02-01T10:04:57;10.43;;;2.93;;
15764;SDS011;7983;50.744;7.086;2023-02-01T10:08:12;11.13;;;2.50;;
15764;SDS011;7983;50.744;7.086;2023-02-01T10:10:35;9.73;;;2.80;;
15764;SDS011;7983;50.744;7.086;2023-02-01T10:18:57;10.50;;;2.37;;
15764;SDS011;7983;50.744;7.086;2023-02-01T10:27:20;10.40;;;2.30;;
15764;SDS011;7983;50.744;7.086;2023-02-01T10:30:12;5.77;;;1.80;;
15764;SDS011;7983;50.744;7.086;2023-02-01T10:32:48;12.20;;;2.27;;
15764;SDS011;7983;50.744;7.086;2023-02-01T10:35:24;9.17;;;2.50;;
15764;SDS011;7983;50.744;7.086;2023-02-01T10:37:59;6.73;;;2.00;;
15764;SDS011;7983;50.744;7.086;2023-02-01T10:40:27;9.27;;;2.40;;
15764;SDS011;7983;50.744;7.086;2023-02-01T10:42:54;10.67;;;2.60;;
15764;SDS011;7983;50.744;7.086;2023-02-01T10:45:26;6.70;;;2.10;;
15764;SDS011;7983;50.744;7.086;2023-02-01T10:47:54;9.38;;;2.30;;
15764;SDS011;7983;50.744;7.086;2023-02-01T10:52:52;8.17;;;2.47;;
15764;SDS011;7983;50.744;7.086;2023-02-01T10:58:05;7.75;;;2.60;;
15764;SDS011;7983;50.744;7.086;2023-02-01T11:00:34;9.25;;;2.47;;
15764;SDS011;7983;50.744;7.086;2023-02-01T11:05:58;9.75;;;3.20;;
15764;SDS011;7983;50.744;7.086;2023-02-01T11:08:26;7.00;;;2.03;;
15764;SDS011;7983;50.744;7.086;2023-02-01T11:11:00;12.45;;;2.88;;
15764;SDS011;7983;50.744;7.086;2023-02-01T11:13:30;9.18;;;2.42;;
15764;SDS011;7983;50.744;7.086;2023-02-01T11:16:04;8.50;;;2.17;;
15764;SDS011;7983;50.744;7.086;2023-02-01T11:18:31;7.63;;;1.98;;
15764;SDS011;7983;50.744;7.086;2023-02-01T11:21:01;7.50;;;2.10;;
15764;SDS011;7983;50.744;7.086;2023-02-01T11:23:30;10.50;;;2.60;;
15764;SDS011;7983;50.744;7.086;2023-02-01T11:26:09;9.10;;;2.63;;
15764;SDS011;7983;50.744;7.086;2023-02-01T11:29:33;14.45;;;2.78;;
15764;SDS011;7983;50.744;7.086;2023-02-01T11:31:42;5.72;;;2.00;;
15764;SDS011;7983;50.744;7.086;2023-02-01T11:34:14;8.13;;;2.20;;
15764;SDS011;7983;50.744;7.086;2023-02-01T11:36:48;11.02;;;2.55;;
15764;SDS011;7983;50.744;7.086;2023-02-01T11:47:18;6.13;;;2.25;;
15764;SDS011;7983;50.744;7.086;2023-02-01T11:49:55;5.68;;;2.20;;
15764;SDS011;7983;50.744;7.086;2023-02-01T11:52:38;7.90;;;2.38;;
15764;SDS011;7983;50.744;7.086;2023-02-01T11:55:33;7.60;;;1.80;;
15764;SDS011;7983;50.744;7.086;2023-02-01T12:00:46;8.15;;;2.10;;
15764;SDS011;7983;50.744;7.086;2023-02-01T12:11:42;8.77;;;2.22;;
15764;SDS011;7983;50.744;7.086;2023-02-01T12:46:17;4.63;;;1.60;;
15764;SDS011;7983;50.744;7.086;2023-02-01T12:48:56;8.03;;;2.27;;
15764;SDS011;7983;50.744;7.086;2023-02-01T12:51:46;7.70;;;2.00;;
15764;SDS011;7983;50.744;7.086;2023-02-01T12:56:57;6.22;;;2.10;;
15764;SDS011;7983;50.744;7.086;2023-02-01T12:59:34;5.90;;;1.90;;
15764;SDS011;7983;50.744;7.086;2023-02-01T13:07:30;6.60;;;1.93;;
15764;SDS011;7983;50.744;7.086;2023-02-01T13:10:05;5.17;;;1.90;;
15764;SDS011;7983;50.744;7.086;2023-02-01T13:12:51;8.30;;;2.20;;
15764;SDS011;7983;50.744;7.086;2023-02-01T13:17:51;11.00;;;2.60;;
15764;SDS011;7983;50.744;7.086;2023-02-01T13:20:35;8.30;;;2.17;;
15764;SDS011;7983;50.744;7.086;2023-02-01T13:23:18;8.10;;;1.92;;
15764;SDS011;7983;50.744;7.086;2023-02-01T13:25:49;8.23;;;2.30;;
15764;SDS011;7983;50.744;7.086;2023-02-01T13:42:01;9.60;;;2.00;;
15764;SDS011;7983;50.744;7.086;2023-02-01T13:44:40;7.97;;;2.13;;
15764;SDS011;7983;50.744;7.086;2023-02-01T13:47:25;9.13;;;1.90;;
15764;SDS011;7983;50.744;7.086;2023-02-01T13:49:55;9.77;;;2.40;;
15764;SDS011;7983;50.744;7.086;2023-02-01T13:52:32;6.17;;;1.83;;
15764;SDS011;7983;50.744;7.086;2023-02-01T13:57:38;7.20;;;2.23;;
15764;SDS011;7983;50.744;7.086;2023-02-01T14:13:24;9.03;;;2.27;;
15764;SDS011;7983;50.744;7.086;2023-02-01T14:26:19;7.73;;;2.03;;
15764;SDS011;7983;50.744;7.086;2023-02-01T14:28:53;6.63;;;2.03;;
15764;SDS011;7983;50.744;7.086;2023-02-01T14:37:03;8.52;;;2.13;;
15764;SDS011;7983;50.744;7.086;2023-02-01T14:44:55;6.40;;;1.90;;
15764;SDS011;7983;50.744;7.086;2023-02-01T14:47:42;7.00;;;2.10;;
15764;SDS011;7983;50.744;7.086;2023-02-01T14:58:14;6.75;;;1.90;;
15764;SDS011;7983;50.744;7.086;2023-02-01T15:00:47;7.25;;;1.98;;
15764;SDS011;7983;50.744;7.086;2023-02-01T15:03:21;6.20;;;1.80;;
15764;SDS011;7983;50.744;7.086;2023-02-01T15:08:57;8.48;;;2.17;;
15764;SDS011;7983;50.744;7.086;2023-02-01T15:11:25;5.67;;;1.77;;
15764;SDS011;7983;50.744;7.086;2023-02-01T15:13:51;6.68;;;1.98;;
15764;SDS011;7983;50.744;7.086;2023-02-01T15:16:25;7.72;;;1.85;;
15764;SDS011;7983;50.744;7.086;2023-02-01T15:19:09;6.45;;;1.70;;
15764;SDS011;7983;50.744;7.086;2023-02-01T15:21:44;8.68;;;1.90;;
15764;SDS011;7983;50.744;7.086;2023-02-01T15:24:14;5.67;;;1.63;;
15764;SDS011;7983;50.744;7.086;2023-02-01T15:26:53;4.28;;;1.48;;
15764;SDS011;7983;50.744;7.086;2023-02-01T15:29:21;9.27;;;1.90;;
15764;SDS011;7983;50.744;7.086;2023-02-01T15:31:52;5.85;;;1.67;;
15764;SDS011;7983;50.744;7.086;2023-02-01T15:34:21;4.97;;;1.73;;
15764;SDS011;7983;50.744;7.086;2023-02-01T15:36:49;6.95;;;1.90;;
15764;SDS011;7983;50.744;7.086;2023-02-01T15:41:51;6.00;;;1.92;;
15764;SDS011;7983;50.744;7.086;2023-02-01T15:47:04;4.63;;;1.60;;
15764;SDS011;7983;50.744;7.086;2023-02-01T15:49:40;5.25;;;1.60;;
15764;SDS011;7983;50.744;7.086;2023-02-01T15:52:20;5.28;;;1.55;;
15764;SDS011;7983;50.744;7.086;2023-02-01T15:54:56;6.78;;;1.77;;
15764;SDS011;7983;50.744;7.086;2023-02-01T15:57:35;5.22;;;1.70;;
15764;SDS011;7983;50.744;7.086;2023-02-01T16:00:06;5.10;;;1.60;;
15764;SDS011;7983;50.744;7.086;2023-02-01T16:05:28;6.43;;;1.80;;
15764;SDS011;7983;50.744;7.086;2023-02-01T16:08:03;4.80;;;1.50;;
15764;SDS011;7983;50.744;7.086;2023-02-01T16:10:37;4.90;;;1.60;;
15764;SDS011;7983;50.744;7.086;2023-02-01T16:13:13;4.67;;;1.80;;
15764;SDS011;7983;50.744;7.086;2023-02-01T16:15:42;5.37;;;1.67;;
15764;SDS011;7983;50.744;7.086;2023-02-01T16:18:09;10.33;;;1.97;;
15764;SDS011;7983;50.744;7.086;2023-02-01T16:20:41;4.93;;;1.70;;
15764;SDS011;7983;50.744;7.086;2023-02-01T16:23:07;6.37;;;1.70;;
15764;SDS011;7983;50.744;7.086;2023-02-01T16:25:34;6.27;;;1.90;;
15764;SDS011;7983;50.744;7.086;2023-02-01T16:28:05;5.20;;;1.53;;
15764;SDS011;7983;50.744;7.086;2023-02-01T16:30:31;4.87;;;1.40;;
15764;SDS011;7983;50.744;7.086;2023-02-01T16:33:00;8.83;;;1.80;;
15764;SDS011;7983;50.744;7.086;2023-02-01T16:35:36;6.33;;;1.60;;
15764;SDS011;7983;50.744;7.086;2023-02-01T16:38:10;6.70;;;1.80;;
15764;SDS011;7983;50.744;7.086;2023-02-01T16:40:40;7.50;;;1.80;;
15764;SDS011;7983;50.744;7.086;2023-02-01T16:43:11;7.60;;;2.30;;
15764;SDS011;7983;50.744;7.086;2023-02-01T16:45:38;6.00;;;1.83;;
15764;SDS011;7983;50.744;7.086;2023-02-01T16:48:05;5.50;;;1.90;;
15764;SDS011;7983;50.744;7.086;2023-02-01T16:50:31;7.47;;;1.60;;
15764;SDS011;7983;50.744;7.086;2023-02-01T16:53:01;6.57;;;1.60;;
15764;SDS011;7983;50.744;7.086;2023-02-01T16:55:33;3.33;;;1.50;;
15764;SDS011;7983;50.744;7.086;2023-02-01T16:58:01;5.37;;;1.63;;
15764;SDS011;7983;50.744;7.086;2023-02-01T17:00:27;5.43;;;1.60;;
15764;SDS011;7983;50.744;7.086;2023-02-01T17:03:01;5.70;;;1.80;;
15764;SDS011;7983;50.744;7.086;2023-02-01T17:05:29;7.50;;;2.10;;
15764;SDS011;7983;50.744;7.086;2023-02-01T17:08:00;6.57;;;2.00;;
15764;SDS011;7983;50.744;7.086;2023-02-01T17:10:30;5.57;;;1.97;;
15764;SDS011;7983;50.744;7.086;2023-02-01T17:12:56;8.30;;;2.07;;
15764;SDS011;7983;50.744;7.086;2023-02-01T17:15:25;7.23;;;2.00;;
15764;SDS011;7983;50.744;7.086;2023-02-01T17:17:53;5.77;;;1.63;;
15764;SDS011;7983;50.744;7.086;2023-02-01T17:20:22;5.60;;;2.00;;
15764;SDS011;7983;50.744;7.086;2023-02-01T17:22:50;5.53;;;2.20;;
15764;SDS011;7983;50.744;7.086;2023-02-01T17:25:17;5.70;;;1.60;;
15764;SDS011;7983;50.744;7.086;2023-02-01T17:27:46;5.43;;;1.70;;
15764;SDS011;7983;50.744;7.086;2023-02-01T17:30:15;5.83;;;1.70;;
15764;SDS011;7983;50.744;7.086;2023-02-01T17:32:41;5.97;;;1.97;;
15764;SDS011;7983;50.744;7.086;2023-02-01T17:35:13;7.33;;;2.10;;
15764;SDS011;7983;50.744;7.086;2023-02-01T17:37:45;4.93;;;2.00;;
15764;SDS011;7983;50.744;7.086;2023-02-01T17:40:13;5.60;;;2.03;;
15764;SDS011;7983;50.744;7.086;2023-02-01T17:42:39;3.57;;;1.90;;
15764;SDS011;7983;50.744;7.086;2023-02-01T17:45:48;5.23;;;1.90;;
15764;SDS011;7983;50.744;7.086;2023-02-01T17:48:04;5.67;;;2.20;;
15764;SDS011;7983;50.744;7.086;2023-02-01T17:50:36;8.07;;;2.50;;
15764;SDS011;7983;50.744;7.086;2023-02-01T17:53:03;9.43;;;2.37;;
15764;SDS011;7983;50.744;7.086;2023-02-01T17:55:33;5.60;;;2.20;;
15764;SDS011;7983;50.744;7.086;2023-02-01T17:58:00;5.17;;;2.30;;
15764;SDS011;7983;50.744;7.086;2023-02-01T18:00:26;8.60;;;2.63;;
15764;SDS011;7983;50.744;7.086;2023-02-01T18:02:52;6.00;;;2.47;;
15764;SDS011;7983;50.744;7.086;2023-02-01T18:07:52;6.00;;;2.50;;
15764;SDS011;7983;50.744;7.086;2023-02-01T18:10:18;7.00;;;2.40;;
15764;SDS011;7983;50.744;7.086;2023-02-01T18:12:44;7.47;;;2.60;;
15764;SDS011;7983;50.744;7.086;2023-02-01T18:15:12;7.97;;;2.60;;
15764;SDS011;7983;50.744;7.086;2023-02-01T18:17:43;4.27;;;2.17;;
15764;SDS011;7983;50.744;7.086;2023-02-01T18:20:17;7.47;;;2.43;;
15764;SDS011;7983;50.744;7.086;2023-02-01T18:22:45;6.23;;;2.40;;
15764;SDS011;7983;50.744;7.086;2023-02-01T18:25:15;6.67;;;2.23;;
15764;SDS011;7983;50.744;7.086;2023-02-01T18:27:47;7.83;;;2.57;;
15764;SDS011;7983;50.744;7.086;2023-02-01T18:30:13;5.57;;;2.20;;
15764;SDS011;7983;50.744;7.086;2023-02-01T18:32:42;5.17;;;2.07;;